Latest Weather Observations for Eildon Fire Tower

IDV60801

Issued at 6:32 am EST Monday 29 August 2016 (issued every 30 minutes, with the page automatically refreshed every 10 minutes)

About weather observations | Map of weather stations | Latest weather observations for VIC | Other Formats
Station Details ID: 088164 Name: EILDON FIRE TOWER Lat: -37.21 Lon: 145.84 Height: 637.0 m
Data from the previous 72 hours. | See also: Recent months at Eildon Fire Tower
Date/Time
EST
Temp
°C
App
Temp
°C
Dew
Point
°C
Rel
Hum
%
Delta-T
°C
Wind Press
QNH
hPa
Press
MSL
hPa
Rain since
9am
mm
Dir  Spd
km/h
Gust
km/h
Spd
kts
Gust
kts
29/06:30am 6.9 3.1 3.7 80 1.4 ENE 13 15 7 8 - - 0.0
29/06:00am 6.8 2.9 3.6 80 1.4 E 13 15 7 8 - - 0.0
29/05:30am 6.8 2.6 3.9 82 1.3 E 15 15 8 8 - - 0.0
29/05:00am 6.2 2.0 4.0 86 1.0 ENE 15 15 8 8 - - 0.0
29/04:30am 6.4 2.3 4.2 86 1.0 E 15 15 8 8 - - 0.0
29/04:00am 6.7 3.0 4.4 85 1.0 ENE 13 15 7 8 - - 0.0
29/03:30am 6.6 2.9 4.6 87 0.9 ENE 13 15 7 8 - - 0.0
29/03:00am 6.4 2.7 4.6 88 0.8 ENE 13 15 7 8 - - 0.0
29/02:30am 6.1 2.4 4.4 89 0.8 ENE 13 13 7 7 - - 0.0
29/02:00am 7.0 3.6 4.1 82 1.3 ENE 11 13 6 7 - - 0.0
29/01:30am 7.5 4.2 4.3 80 1.4 ENE 11 11 6 6 - - 0.0
29/01:00am 7.1 3.8 4.4 83 1.2 NE 11 13 6 7 - - 0.0
29/12:30am 7.2 3.5 4.5 83 1.2 ENE 13 15 7 8 - - 0.0
29/12:00am 7.7 4.8 4.5 80 1.5 E 9 11 5 6 - - 0.0
 
Date/Time
EST
Temp
°C
App
Temp
°C
Dew
Point
°C
Rel
Hum
%
Delta-T
°C
Wind Press
QNH
hPa
Press
MSL
hPa
Rain since
9am
mm
Dir  Spd
km/h
Gust
km/h
Spd
kts
Gust
kts
28/11:30pm 7.8 4.2 4.9 82 1.3 ENE 13 13 7 7 - - 0.0
28/11:00pm 7.8 4.5 4.7 81 1.4 NE 11 13 6 7 - - 0.0
28/10:30pm 8.0 5.1 4.8 80 1.5 ENE 9 11 5 6 - - 0.0
28/10:00pm 7.7 4.8 4.8 82 1.3 NNE 9 11 5 6 - - 0.0
28/09:30pm 7.8 4.9 4.7 81 1.4 NNE 9 13 5 7 - - 0.0
28/09:00pm 8.0 5.2 5.1 82 1.3 NE 9 11 5 6 - - 0.0
28/08:30pm 8.1 4.6 5.4 83 1.3 ENE 13 15 7 8 - - 0.0
28/08:00pm 8.2 5.4 5.3 82 1.3 NE 9 11 5 6 - - 0.0
28/07:30pm 8.9 6.2 5.6 80 1.6 N 9 11 5 6 - - 0.0
28/07:00pm 8.7 6.0 5.6 81 1.5 NNE 9 13 5 7 - - 0.0
28/06:30pm 9.0 6.6 5.4 78 1.7 NNE 7 9 4 5 - - 0.0
28/06:00pm 9.3 6.9 5.3 76 1.9 NE 7 13 4 7 - - 0.0
28/05:30pm 9.9 7.1 5.3 73 2.2 N 9 15 5 8 - - 0.0
28/05:00pm 10.2 7.4 5.2 71 2.4 N 9 11 5 6 - - 0.0
28/04:30pm 10.5 8.3 5.5 71 2.4 NNE 6 7 3 4 - - 0.0
28/04:00pm 11.0 8.8 5.3 68 2.7 NNE 6 9 3 5 - - 0.0
28/03:30pm 11.8 9.5 5.7 66 2.9 NNE 7 13 4 7 - - 0.0
28/03:00pm 11.8 9.5 5.7 66 2.9 ENE 7 11 4 6 - - 0.0
28/02:30pm 10.9 8.4 4.8 66 2.9 NNE 7 13 4 7 - - 0.0
28/02:00pm 10.9 8.7 5.2 68 2.7 NE 6 7 3 4 - - 0.0
28/01:30pm 11.2 8.9 4.9 65 3.0 NE 6 7 3 4 - - 0.0
28/01:00pm 10.3 8.5 5.3 71 2.4 ENE 4 9 2 5 - - 0.0
28/12:30pm 8.8 6.7 4.0 72 2.2 N 4 7 2 4 - - 0.0
28/12:00pm 8.6 6.5 3.8 72 2.2 NNE 4 4 2 2 - - 0.0
28/11:30am 8.3 6.4 4.7 78 1.7 NE 4 7 2 4 - - 0.0
28/11:00am 7.6 5.1 3.8 77 1.7 NE 6 9 3 5 - - 0.0
28/10:30am 7.3 4.9 4.1 80 1.4 E 6 9 3 5 - - 0.0
28/10:00am 7.0 4.2 3.4 78 1.6 NE 7 11 4 6 - - 0.0
28/09:30am 6.6 3.8 3.2 79 1.5 NE 7 11 4 6 - - 0.0
28/09:00am 6.5 3.3 3.1 79 1.5 ENE 9 11 5 6 - - 0.0
28/08:30am 6.2 2.9 2.7 78 1.5 NE 9 15 5 8 - - 0.0
28/08:00am 5.4 2.5 2.6 82 1.2 NE 7 11 4 6 - - 0.0
28/07:30am 5.0 2.1 2.7 85 1.0 NNE 7 11 4 6 - - 0.0
28/07:00am 5.0 1.7 2.4 83 1.1 NNE 9 13 5 7 - - 0.0
28/06:30am 5.4 2.1 2.2 80 1.3 ENE 9 11 5 6 - - 0.0
28/06:00am 5.3 2.3 2.3 81 1.3 E 7 11 4 6 - - 0.0
28/05:30am 5.0 1.7 2.5 84 1.1 NE 9 11 5 6 - - 0.0
28/05:00am 5.3 2.5 2.3 81 1.3 NNE 6 7 3 4 - - 0.0
28/04:30am 5.4 2.6 2.1 79 1.4 NNE 6 6 3 3 - - 0.0
28/04:00am 5.7 2.3 2.0 77 1.6 N 9 13 5 7 - - 0.0
28/03:30am 5.2 2.2 2.2 81 1.3 NNE 7 13 4 7 - - 0.0
28/03:00am 5.0 1.3 2.5 84 1.1 NNE 11 15 6 8 - - 0.0
28/02:30am 4.8 0.7 2.5 85 1.0 NNE 13 17 7 9 - - 0.0
28/02:00am 4.7 0.6 2.4 85 1.0 NNE 13 17 7 9 - - 0.0
28/01:30am 4.8 0.7 2.3 84 1.0 NNE 13 17 7 9 - - 0.0
28/01:00am 5.2 1.1 2.4 82 1.2 NE 13 19 7 10 - - 0.0
28/12:30am 5.3 1.6 2.5 82 1.2 NNE 11 19 6 10 - - 0.0
28/12:00am 5.3 1.3 2.7 83 1.1 NNE 13 20 7 11 - - 0.0
 
Date/Time
EST
Temp
°C
App
Temp
°C
Dew
Point
°C
Rel
Hum
%
Delta-T
°C
Wind Press
QNH
hPa
Press
MSL
hPa
Rain since
9am
mm
Dir  Spd
km/h
Gust
km/h
Spd
kts
Gust
kts
27/11:30pm 5.0 0.5 2.4 83 1.1 NNE 15 20 8 11 - - 0.0
27/11:00pm 5.5 2.2 2.5 81 1.3 NNE 9 13 5 7 - - 0.0
27/10:30pm 5.7 2.4 2.4 79 1.4 NNE 9 13 5 7 - - 0.0
27/10:00pm 5.9 1.4 2.2 77 1.6 N 15 19 8 10 - - 0.0
27/09:30pm 6.0 1.5 2.1 76 1.6 N 15 20 8 11 - - 0.0
27/09:00pm 6.2 1.3 2.3 76 1.7 N 17 20 9 11 - - 0.0
27/08:30pm 5.9 1.8 2.2 77 1.6 NNE 13 20 7 11 - - 0.0
27/08:00pm 6.4 1.1 2.1 74 1.8 N 19 30 10 16 - - 0.0
27/07:30pm 6.4 2.7 2.1 74 1.8 NNE 11 20 6 11 - - 0.0
27/07:00pm 6.5 2.4 2.0 73 1.9 N 13 22 7 12 - - 0.0
27/06:30pm 6.7 2.2 2.0 72 2.0 NNE 15 22 8 12 - - 0.0
27/06:00pm 6.9 2.8 2.2 72 2.0 N 13 20 7 11 - - 0.0
27/05:30pm 7.0 2.1 1.9 70 2.2 N 17 28 9 15 - - 0.0
27/05:00pm 7.3 2.8 2.2 70 2.2 N 15 26 8 14 - - 0.0
27/04:30pm 7.2 3.0 1.5 67 2.4 N 13 28 7 15 - - 0.0
27/04:00pm 7.8 3.7 2.1 67 2.5 N 13 26 7 14 - - 0.0
27/03:30pm 8.2 3.7 2.0 65 2.7 N 15 24 8 13 - - 0.0
27/03:00pm 7.9 2.4 1.7 65 2.6 NNW 20 32 11 17 - - 0.0
27/02:30pm 7.6 2.3 2.1 68 2.4 NNW 19 33 10 18 - - 0.0
27/02:00pm 8.0 3.8 1.6 64 2.7 NW 13 19 7 10 - - 0.0
27/01:30pm 8.2 4.1 2.0 65 2.7 NW 13 20 7 11 - - 0.0
27/01:00pm 7.5 3.0 2.0 68 2.4 NW 15 30 8 16 - - 0.0
27/12:30pm 7.7 3.2 2.2 68 2.4 NW 15 28 8 15 - - 0.0
27/12:00pm 7.7 4.0 2.2 68 2.4 NW 11 24 6 13 - - 0.0
27/11:30am 7.8 4.2 2.7 70 2.2 NNW 11 20 6 11 - - 0.0
27/11:00am 7.6 4.7 2.5 70 2.2 NNW 7 19 4 10 - - 0.0
27/10:30am 7.0 3.5 1.5 68 2.3 WNW 9 15 5 8 - - 0.0
27/10:00am 6.4 2.9 1.5 71 2.0 NNW 9 17 5 9 - - 0.0
27/09:30am 5.5 2.0 1.2 74 1.8 NW 9 17 5 9 - - 0.0
27/09:00am 5.0 1.9 1.1 76 1.6 NW 7 13 4 7 - - 0.2
27/08:30am 4.3 0.3 0.6 77 1.5 W 11 13 6 7 - - 0.2
27/08:00am 4.5 0.8 0.1 73 1.7 W 9 13 5 7 - - 0.2
27/07:30am 5.0 0.9 -0.2 69 2.1 WNW 11 15 6 8 - - 0.2
27/07:00am 3.7 0.0 0.2 78 1.4 NW 9 15 5 8 - - 0.2
27/06:30am 4.1 0.5 0.3 76 1.5 NW 9 13 5 7 - - 0.2
27/06:00am 4.4 0.7 0.0 73 1.7 NW 9 13 5 7 - - 0.2
27/05:30am 4.5 1.3 0.8 77 1.5 NW 7 13 4 7 - - 0.2
27/05:00am 4.5 1.2 0.1 73 1.7 NW 7 11 4 6 - - 0.2
27/04:30am 4.5 1.3 0.8 77 1.5 NW 7 11 4 6 - - 0.2
27/04:00am 4.3 1.5 3.3 93 0.4 N 7 9 4 5 - - 0.2
27/03:30am 4.8 1.8 1.8 81 1.2 NNW 7 9 4 5 - - 0.2
27/03:00am 5.1 2.1 0.5 72 1.9 NW 6 9 3 5 - - 0.2
27/02:30am 5.1 2.1 0.7 73 1.8 WNW 6 7 3 4 - - 0.2
27/02:00am 4.8 2.1 2.7 86 0.9 NW 6 6 3 3 - - 0.2
27/01:30am 5.2 2.2 1.1 75 1.7 NW 6 7 3 4 - - 0.2
27/01:00am 5.5 2.3 0.7 71 1.9 NW 7 11 4 6 - - 0.2
27/12:30am 5.2 2.4 1.9 79 1.4 NW 6 7 3 4 - - 0.2
27/12:00am 5.4 1.7 2.4 81 1.3 W 11 13 6 7 - - 0.2
 
Date/Time
EST
Temp
°C
App
Temp
°C
Dew
Point
°C
Rel
Hum
%
Delta-T
°C
Wind Press
QNH
hPa
Press
MSL
hPa
Rain since
9am
mm
Dir  Spd
km/h
Gust
km/h
Spd
kts
Gust
kts
26/11:30pm 5.5 2.2 2.7 82 1.2 W 9 13 5 7 - - 0.2
26/11:00pm 5.5 2.3 3.0 84 1.1 W 9 13 5 7 - - 0.2
26/10:30pm 5.3 2.2 3.8 90 0.7 W 9 11 5 6 - - 0.2
26/10:00pm 5.2 2.4 3.4 88 0.8 W 7 11 4 6 - - 0.2
26/09:30pm 5.5 2.6 2.8 83 1.2 W 7 9 4 5 - - 0.2
26/09:00pm 5.7 2.3 1.6 75 1.7 SW 9 11 5 6 - - 0.2
26/08:30pm 5.5 2.8 2.5 81 1.3 WSW 6 7 3 4 - - 0.2
26/08:00pm 6.0 2.7 2.6 79 1.5 WSW 9 11 5 6 - - 0.0
26/07:30pm 6.1 2.4 2.4 77 1.6 WSW 11 15 6 8 - - 0.0
26/07:00pm 6.0 2.3 2.5 78 1.5 WSW 11 13 6 7 - - 0.0
26/06:30pm 6.1 3.2 2.6 78 1.5 WSW 7 9 4 5 - - 0.0
26/06:00pm 6.1 2.4 2.6 78 1.5 WSW 11 15 6 8 - - 0.0
26/05:30pm 6.3 3.0 2.6 77 1.6 WSW 9 13 5 7 - - 0.0
26/05:00pm 6.6 2.9 2.5 75 1.8 WSW 11 15 6 8 - - 0.0
26/04:30pm 6.8 3.6 2.9 76 1.7 WSW 9 15 5 8 - - 0.0
26/04:00pm 7.8 3.5 3.3 73 2.0 W 15 19 8 10 - - 0.0
26/03:30pm 7.2 2.8 2.5 72 2.0 W 15 22 8 12 - - 0.0
26/03:00pm 6.4 2.0 2.5 76 1.7 W 15 20 8 11 - - 0.0
26/02:30pm 6.3 2.0 3.5 82 1.2 W 15 20 8 11 - - 0.0
26/02:00pm 6.0 1.9 4.2 88 0.8 WSW 15 19 8 10 - - 0.0
26/01:30pm 5.8 2.1 4.6 92 0.5 WSW 13 17 7 9 - - 0.0
26/01:00pm 6.6 2.4 3.9 83 1.2 W 15 22 8 12 - - 0.0
26/12:30pm 6.4 1.3 3.0 79 1.5 WSW 19 26 10 14 - - 0.0
26/12:00pm 6.6 3.4 3.0 78 1.6 W 9 15 5 8 - - 0.0
26/11:30am 6.3 2.8 5.3 93 0.5 W 13 20 7 11 - - 0.0
26/11:00am 5.4 1.2 3.9 90 0.7 WSW 15 20 8 11 - - 0.0
26/10:30am 5.6 2.3 4.4 92 0.5 WSW 11 19 6 10 - - 0.0
26/10:00am 5.0 2.1 4.6 97 0.2 W 9 13 5 7 - - 0.0
26/09:30am 4.1 0.7 3.8 98 0.1 W 11 13 6 7 - - 0.0
26/09:00am 3.6 0.8 3.3 98 0.1 W 7 11 4 6 - - 0.2
26/08:30am 3.3 0.6 2.9 97 0.2 W 6 7 3 4 - - 0.2
26/08:00am 3.4 0.8 3.1 98 0.1 W 6 7 3 4 - - 0.2
26/07:30am 3.2 0.3 2.8 97 0.2 W 7 11 4 6 - - 0.2
26/07:00am 2.9 -1.2 2.5 97 0.2 WSW 13 15 7 8 - - 0.2

Other Formats:

Comma delimited format used in spreadsheet applications
http://www.bom.gov.au/fwo/IDV60801/IDV60801.94881.axf

JavaScript Object Notation format (JSON) in row-major order
http://www.bom.gov.au/fwo/IDV60801/IDV60801.94881.json